Saint-Barthelemy, Canada
Current Conditions -  °F | °C
As of 5:19 AM on Saturday 25 Oct 2014 (Local Time) from CYRQ Reporting Station
Haze Haze  
Wind Chill: 30°   Ceiling: 300
Heat Index: 30°   Visibility: 0.62mi
Dew Point: 30°   Wind: 0mph
Humidity: 100%   Direction: NA
Pressure: 29.72"   Gusts: NA
Location:  46.18°N, 73.12°W
Report Text: CYRQ 250919Z AUTO 00000KT 5/8SM BR VV003 M01/M01 A2972 RMK VIS VRB 1/4-1 3/4 SLP065
Loading
Personal Weather Stations






























Interactive Weather Map
Tropical Storm Tracking
New forecast layout! Learn more

10-Day Weather Forecast

Advertisements
Track Severe Weather on mobile